Time;durP1;ratioP1;P1;durP2;ratioP2;P2;SDS_P1;SDS_P2;PMS_P1;PMS_P2;Temp;Humidity;BMP_temperature;BMP_pressure;BME280_temperature;BME280_humidity;BME280_pressure;Samples;Min_cycle;Max_cycle;Signal;HPM_P1;HPM_P2
2022/04/15 00:00:32;;;;;;;4.93;4.25;;;;;;;14.75;60.15;97832.34;6103306;23;20295;-81
2022/04/15 00:02:58;;;;;;;4.80;3.92;;;;;;;14.72;60.19;97824.97;6060450;23;20258;-81
2022/04/15 00:05:40;;;;;;;4.25;3.85;;;;;;;14.77;59.70;97822.38;6061015;23;20270;-81
2022/04/15 00:08:05;;;;;;;5.40;4.10;;;;;;;14.80;59.77;97823.69;6124605;23;20250;-81
2022/04/15 00:10:32;;;;;;;5.82;4.53;;;;;;;14.82;59.92;97826.06;6147221;23;20224;-81
2022/04/15 00:12:59;;;;;;;4.63;4.00;;;;;;;14.78;59.49;97823.16;6095581;23;20234;-80
2022/04/15 00:15:24;;;;;;;6.20;4.88;;;;;;;14.77;59.51;97832.88;6126244;23;20218;-80
2022/04/15 00:17:51;;;;;;;5.85;4.95;;;;;;;14.73;59.78;97821.28;6099451;23;20323;-81
2022/04/15 00:20:17;;;;;;;5.22;4.72;;;;;;;14.65;59.94;97823.63;6095735;23;20718;-81
2022/04/15 00:22:42;;;;;;;7.70;4.70;;;;;;;14.58;59.73;97821.19;6061596;23;20161;-81
2022/04/15 00:25:10;;;;;;;5.60;4.15;;;;;;;14.47;59.82;97817.72;6061248;23;20226;-81
2022/04/15 00:27:36;;;;;;;5.20;4.03;;;;;;;14.45;59.76;97824.28;6096227;23;20250;-80
2022/04/15 00:30:03;;;;;;;5.95;4.00;;;;;;;14.37;59.55;97817.66;6095754;23;20152;-81
2022/04/15 00:32:29;;;;;;;5.90;3.90;;;;;;;14.36;59.55;97816.09;6110707;23;20247;-81
2022/04/15 00:34:54;;;;;;;4.47;3.78;;;;;;;14.25;59.48;97828.34;6085562;23;20512;-81
2022/04/15 00:37:19;;;;;;;4.88;4.38;;;;;;;14.18;59.59;97819.91;6110856;23;20214;-81
2022/04/15 00:39:46;;;;;;;5.85;4.38;;;;;;;14.08;60.30;97827.69;6120907;23;20148;-81
2022/04/15 00:42:12;;;;;;;7.25;4.55;;;;;;;14.00;59.81;97832.34;6095622;23;20179;-81
2022/04/15 00:44:38;;;;;;;7.65;5.25;;;;;;;13.94;60.57;97828.09;6085273;23;20723;-81
2022/04/15 00:47:19;;;;;;;10.20;5.13;;;;;;;13.71;61.19;97821.38;6086354;23;20227;-81
2022/04/15 00:49:45;;;;;;;5.82;5.00;;;;;;;13.84;61.15;97828.03;6095446;23;20179;-81
2022/04/15 00:52:13;;;;;;;5.30;4.80;;;;;;;13.77;61.44;97827.44;6097267;23;20216;-81
2022/04/15 00:54:40;;;;;;;7.47;5.28;;;;;;;13.73;61.32;97823.75;6062228;23;20200;-81
2022/04/15 00:57:07;;;;;;;6.95;4.85;;;;;;;13.73;60.94;97823.75;6087066;23;20275;-81
2022/04/15 00:59:33;;;;;;;6.93;4.85;;;;;;;13.65;61.32;97827.59;6095854;23;20313;-81
2022/04/15 01:01:59;;;;;;;5.63;4.85;;;;;;;13.63;61.25;97821.81;6137422;23;20007;-80
2022/04/15 01:04:25;;;;;;;7.05;5.72;;;;;;;13.63;61.60;97825.22;6075188;23;20095;-81
2022/04/15 01:06:51;;;;;;;6.32;5.60;;;;;;;13.58;61.61;97827.78;6125600;23;20251;-81
2022/04/15 01:09:17;;;;;;;7.60;5.72;;;;;;;13.62;61.58;97825.47;6121928;23;20214;-81
2022/04/15 01:11:44;;;;;;;6.50;5.28;;;;;;;13.62;61.68;97815.00;6112377;23;20256;-81
2022/04/15 01:14:10;;;;;;;7.30;6.13;;;;;;;13.63;61.79;97824.44;6062110;23;20141;-80
2022/04/15 01:16:35;;;;;;;8.30;6.28;;;;;;;13.63;61.77;97816.59;6062665;23;20599;-81
2022/04/15 01:19:01;;;;;;;7.72;5.97;;;;;;;13.60;62.28;97823.09;6087392;23;20164;-81
2022/04/15 01:21:31;;;;;;;7.78;5.93;;;;;;;13.52;62.58;97823.56;6112132;23;20258;-81
2022/04/15 01:23:57;;;;;;;6.97;6.00;;;;;;;13.64;62.29;97818.16;6148339;23;20258;-81
2022/04/15 01:26:23;;;;;;;8.05;6.07;;;;;;;13.62;62.02;97823.66;6097126;23;20224;-80
2022/04/15 01:28:48;;;;;;;9.45;6.25;;;;;;;13.55;62.21;97817.81;6096574;23;20334;-81
2022/04/15 01:31:14;;;;;;;8.48;6.57;;;;;;;13.54;61.89;97826.72;6096974;23;20258;-81
2022/04/15 01:33:39;;;;;;;7.70;6.55;;;;;;;13.53;62.18;97825.13;6061737;23;20344;-81
2022/04/15 01:36:05;;;;;;;9.57;6.80;;;;;;;13.51;62.29;97821.97;6096542;23;20550;-81
2022/04/15 01:38:30;;;;;;;6.88;5.82;;;;;;;13.52;62.13;97826.19;6111589;23;20212;-81
2022/04/15 01:40:56;;;;;;;8.70;6.80;;;;;;;13.53;62.41;97824.34;6097138;23;20384;-81
2022/04/15 01:43:22;;;;;;;8.43;6.70;;;;;;;13.52;62.19;97820.94;6096770;23;20573;-81
2022/04/15 01:45:47;;;;;;;11.77;8.57;;;;;;;13.48;62.36;97818.00;6112335;23;20172;-81
2022/04/15 01:48:13;;;;;;;10.77;8.85;;;;;;;13.50;62.41;97823.00;6062070;23;20622;-81
2022/04/15 01:50:38;;;;;;;10.05;7.97;;;;;;;13.46;62.32;97824.53;6123673;23;20234;-81
2022/04/15 01:53:03;;;;;;;11.77;8.18;;;;;;;13.40;61.45;97822.88;6121889;23;20251;-81
2022/04/15 01:55:29;;;;;;;8.60;7.57;;;;;;;13.32;61.99;97823.34;6117804;23;20214;-81
2022/04/15 01:57:55;;;;;;;8.20;6.72;;;;;;;13.25;62.07;97824.28;6121562;23;20413;-81
2022/04/15 02:00:20;;;;;;;11.48;8.60;;;;;;;13.21;62.18;97823.22;6118713;23;20164;-81
2022/04/15 02:02:50;;;;;;;12.02;8.30;;;;;;;13.11;62.12;97815.25;6102386;23;20143;-81
2022/04/15 02:05:18;;;;;;;12.07;8.27;;;;;;;13.19;62.20;97824.47;6090976;23;20184;-81
2022/04/15 02:07:44;;;;;;;9.70;8.10;;;;;;;13.21;62.17;97827.63;6111278;23;20234;-81
2022/04/15 02:10:10;;;;;;;10.70;8.68;;;;;;;13.18;62.34;97828.94;6111449;23;20140;-80
2022/04/15 02:12:35;;;;;;;12.88;9.35;;;;;;;13.14;62.43;97830.44;6062726;23;20324;-80
2022/04/15 02:15:01;;;;;;;11.95;9.75;;;;;;;13.06;63.03;97830.88;6095809;23;20160;-80
2022/04/15 02:17:26;;;;;;;12.80;9.20;;;;;;;13.05;62.81;97831.91;6086774;23;20199;-81
2022/04/15 02:19:52;;;;;;;12.60;8.77;;;;;;;13.01;62.16;97836.06;6086518;23;20195;-81
2022/04/15 02:22:18;;;;;;;12.65;9.30;;;;;;;13.00;61.95;97837.84;6099067;23;20249;-81
2022/04/15 02:24:43;;;;;;;11.43;8.52;;;;;;;12.92;62.48;97836.47;6062858;23;20285;-81
2022/04/15 02:27:08;;;;;;;10.23;9.13;;;;;;;12.89;62.79;97836.94;6121067;23;20226;-81
2022/04/15 02:29:35;;;;;;;8.88;7.70;;;;;;;12.85;62.50;97833.25;6121735;23;20136;-81
2022/04/15 02:32:00;;;;;;;10.50;7.63;;;;;;;12.91;62.59;97836.72;6062248;23;20250;-81
2022/04/15 02:34:25;;;;;;;9.60;7.38;;;;;;;12.95;62.36;97837.00;6061270;23;20200;-81
2022/04/15 02:36:51;;;;;;;9.95;7.85;;;;;;;12.99;63.65;97838.09;6086785;23;20213;-81
2022/04/15 02:39:16;;;;;;;14.70;9.63;;;;;;;13.09;63.04;97839.03;6121043;23;20169;-81
2022/04/15 02:41:42;;;;;;;16.33;10.07;;;;;;;13.20;62.99;97829.47;6096313;23;20140;-81
2022/04/15 02:44:07;;;;;;;13.18;10.23;;;;;;;13.32;63.21;97833.81;6096314;23;20602;-81
2022/04/15 02:46:34;;;;;;;14.45;10.38;;;;;;;13.39;62.89;97829.97;6086211;23;20199;-81
2022/04/15 02:48:59;;;;;;;13.38;10.60;;;;;;;13.48;62.54;97833.69;6120868;23;20657;-81
2022/04/15 02:51:24;;;;;;;14.85;11.25;;;;;;;13.51;61.86;97835.06;6097959;23;20413;-81
2022/04/15 02:53:50;;;;;;;13.80;10.05;;;;;;;13.47;62.02;97833.97;6120509;23;20183;-81
2022/04/15 02:56:15;;;;;;;12.82;9.50;;;;;;;13.46;62.10;97835.00;6114458;23;20179;-82
2022/04/15 02:58:41;;;;;;;11.95;9.40;;;;;;;13.44;62.08;97837.84;6121188;23;20287;-82
2022/04/15 03:01:06;;;;;;;13.50;8.95;;;;;;;13.49;61.98;97844.97;6120574;23;20175;-82
2022/04/15 03:03:33;;;;;;;12.50;8.68;;;;;;;13.50;61.51;97838.69;6122333;23;20243;-82
2022/04/15 03:05:58;;;;;;;14.02;10.50;;;;;;;13.60;61.78;97844.03;6096779;23;20184;-82
2022/04/15 03:08:24;;;;;;;12.88;10.32;;;;;;;13.62;61.75;97834.13;6147984;23;20148;-82
2022/04/15 03:10:49;;;;;;;12.85;8.75;;;;;;;13.54;61.75;97842.41;6061889;23;20235;-82
2022/04/15 03:13:15;;;;;;;10.80;9.35;;;;;;;13.49;62.00;97837.13;6060985;23;20618;-82
2022/04/15 03:15:40;;;;;;;10.57;8.02;;;;;;;13.44;62.17;97839.69;6095748;23;20328;-82
2022/04/15 03:18:05;;;;;;;8.18;6.53;;;;;;;13.43;61.59;97832.88;6121173;23;20190;-82
2022/04/15 03:20:31;;;;;;;8.68;6.82;;;;;;;13.34;61.08;97836.97;6095623;23;20171;-81
2022/04/15 03:22:56;;;;;;;7.75;6.35;;;;;;;13.20;61.75;97829.47;6096466;23;20183;-81
2022/04/15 03:25:24;;;;;;;8.45;6.28;;;;;;;13.13;61.85;97826.25;6119843;23;20320;-81
2022/04/15 03:27:50;;;;;;;10.32;7.82;;;;;;;13.12;61.77;97837.72;6120417;23;20176;-82
2022/04/15 03:30:15;;;;;;;11.23;7.32;;;;;;;13.11;61.75;97834.34;6120751;23;20165;-82
2022/04/15 03:32:48;;;;;;;11.98;8.95;;;;;;;13.02;62.60;97840.22;6096171;23;20253;-82
2022/04/15 03:35:20;;;;;;;13.05;10.60;;;;;;;13.18;62.41;97839.38;6095855;23;20301;-82
2022/04/15 03:37:46;;;;;;;12.07;9.40;;;;;;;13.29;62.38;97835.06;6121743;23;20145;-82
2022/04/15 03:40:11;;;;;;;14.38;11.02;;;;;;;13.30;62.40;97828.78;6095993;23;20161;-82
2022/04/15 03:42:48;;;;;;;16.98;12.30;;;;;;;13.26;62.37;97830.31;6120733;23;20676;-82
2022/04/15 03:45:14;;;;;;;14.50;11.82;;;;;;;13.43;61.92;97825.03;6119922;23;20159;-82
2022/04/15 03:47:41;;;;;;;17.00;13.05;;;;;;;13.51;62.21;97836.88;6096207;23;20321;-82
2022/04/15 03:50:08;;;;;;;20.83;13.68;;;;;;;13.56;62.34;97832.47;6096122;23;20291;-82
2022/04/15 03:52:46;;;;;;;16.25;12.52;;;;;;;13.46;61.76;97835.78;6122207;23;20314;-81
2022/04/15 03:55:13;;;;;;;15.32;11.00;;;;;;;13.60;61.16;97846.63;6119314;23;20534;-81
2022/04/15 03:57:39;;;;;;;14.98;12.05;;;;;;;13.47;61.55;97833.97;6095711;23;20176;-81
2022/04/15 04:00:13;;;;;;;15.07;11.73;;;;;;;13.39;61.74;97842.25;6117754;23;20206;-81
2022/04/15 04:02:38;;;;;;;13.13;10.23;;;;;;;13.40;60.78;97836.78;6095438;23;20184;-81
2022/04/15 04:05:04;;;;;;;16.02;12.13;;;;;;;13.30;61.14;97844.50;6095018;23;20153;-81
2022/04/15 04:07:30;;;;;;;12.43;10.07;;;;;;;13.21;61.59;97844.13;6095886;23;20218;-81
2022/04/15 04:09:56;;;;;;;16.98;12.52;;;;;;;13.13;61.88;97849.78;6120641;23;20638;-81
2022/04/15 04:12:21;;;;;;;17.42;12.07;;;;;;;13.15;62.40;97854.78;6095563;23;20241;-81
2022/04/15 04:14:47;;;;;;;15.77;11.85;;;;;;;13.10;62.25;97853.66;6110417;23;20141;-81
2022/04/15 04:17:12;;;;;;;16.80;12.23;;;;;;;13.10;62.61;97855.50;6085566;23;20182;-81
2022/04/15 04:19:37;;;;;;;15.98;12.68;;;;;;;13.05;62.68;97848.38;6120234;23;20208;-81
2022/04/15 04:22:04;;;;;;;14.68;11.65;;;;;;;13.08;62.28;97852.34;6110654;23;20228;-81
2022/04/15 04:24:30;;;;;;;16.90;12.43;;;;;;;13.00;62.78;97861.38;6060750;23;20220;-81
2022/04/15 04:26:55;;;;;;;17.27;11.85;;;;;;;12.98;62.63;97860.06;6110543;23;20262;-81
2022/04/15 04:29:20;;;;;;;15.80;11.70;;;;;;;12.92;62.49;97853.97;6121918;23;20188;-81
2022/04/15 04:31:46;;;;;;;14.32;11.43;;;;;;;12.91;62.96;97855.78;6062820;23;20137;-81
2022/04/15 04:34:11;;;;;;;16.00;11.68;;;;;;;12.90;62.77;97862.06;6122448;23;20270;-81
2022/04/15 04:36:37;;;;;;;14.20;11.40;;;;;;;12.93;63.06;97864.16;6122382;23;20641;-81
2022/04/15 04:39:03;;;;;;;16.98;11.32;;;;;;;12.95;63.08;97866.53;6122271;23;20300;-81
2022/04/15 04:41:29;;;;;;;14.70;11.63;;;;;;;13.01;63.02;97867.41;6122518;23;20182;-81
2022/04/15 04:43:54;;;;;;;15.73;12.05;;;;;;;13.00;63.00;97865.84;6121742;23;20287;-80
2022/04/15 04:46:20;;;;;;;14.93;11.95;;;;;;;13.01;63.18;97870.03;6097502;23;20211;-81
2022/04/15 04:48:46;;;;;;;14.13;10.57;;;;;;;13.04;63.36;97875.56;6087658;23;20232;-81
2022/04/15 04:51:11;;;;;;;16.15;10.98;;;;;;;13.08;63.23;97881.09;6098418;23;20262;-81
2022/04/15 04:53:36;;;;;;;14.98;11.25;;;;;;;13.06;63.27;97873.50;6062768;23;20137;-81
2022/04/15 04:56:02;;;;;;;15.70;12.02;;;;;;;13.08;63.24;97881.88;6116418;23;20258;-81
2022/04/15 04:58:27;;;;;;;17.67;13.23;;;;;;;13.10;63.72;97874.56;6122268;23;20261;-81
2022/04/15 05:00:52;;;;;;;19.83;14.15;;;;;;;13.10;63.81;97879.03;6114649;23;20214;-81
2022/04/15 05:03:18;;;;;;;16.77;11.65;;;;;;;13.17;63.26;97887.47;6095426;23;20168;-80
2022/04/15 05:05:43;;;;;;;16.95;12.35;;;;;;;13.18;63.74;97883.84;6061927;23;20208;-81
2022/04/15 05:08:08;;;;;;;16.30;12.23;;;;;;;13.32;63.49;97892.13;6148193;23;20507;-81
2022/04/15 05:10:34;;;;;;;15.32;12.23;;;;;;;13.33;63.12;97888.47;6095919;23;20148;-81
2022/04/15 05:12:59;;;;;;;15.30;11.68;;;;;;;13.37;63.15;97899.25;6096544;23;20180;-81
2022/04/15 05:15:25;;;;;;;15.10;11.45;;;;;;;13.38;63.42;97898.22;6095213;23;20288;-81
2022/04/15 05:17:50;;;;;;;16.02;11.73;;;;;;;13.45;63.51;97896.19;6120384;23;20043;-81
2022/04/15 05:20:15;;;;;;;16.83;12.68;;;;;;;13.50;63.34;97904.09;6086383;23;20246;-81
2022/04/15 05:22:41;;;;;;;14.70;11.10;;;;;;;13.59;62.92;97901.81;6120868;23;20258;-81
2022/04/15 05:25:06;;;;;;;17.15;13.10;;;;;;;13.67;63.02;97904.81;6095974;23;20141;-81
2022/04/15 05:27:32;;;;;;;20.38;15.30;;;;;;;13.77;62.75;97903.34;6086150;23;20177;-81
2022/04/15 05:29:57;;;;;;;17.38;13.57;;;;;;;13.88;62.35;97909.47;6120155;23;20211;-81
2022/04/15 05:32:23;;;;;;;18.98;15.50;;;;;;;13.93;61.92;97910.31;6120842;23;20175;-82
2022/04/15 05:34:48;;;;;;;22.08;15.85;;;;;;;14.02;61.90;97908.81;6121864;23;20260;-82
2022/04/15 05:37:14;;;;;;;21.73;16.50;;;;;;;14.13;61.46;97912.31;6121979;23;20193;-82
2022/04/15 05:39:39;;;;;;;20.92;15.45;;;;;;;14.24;61.55;97905.34;6121490;23;20146;-82
2022/04/15 05:42:05;;;;;;;19.33;14.48;;;;;;;14.31;60.94;97903.31;6097086;23;20214;-82
2022/04/15 05:44:30;;;;;;;20.65;15.10;;;;;;;14.39;60.53;97907.28;6096645;23;20051;-82
2022/04/15 05:46:56;;;;;;;20.77;14.95;;;;;;;14.47;60.60;97912.06;6086907;23;20418;-81
2022/04/15 05:49:23;;;;;;;20.35;15.60;;;;;;;14.53;60.40;97910.25;6121997;23;20314;-82
2022/04/15 05:51:49;;;;;;;19.08;15.40;;;;;;;14.61;60.11;97912.44;6099440;23;20146;-82
2022/04/15 05:54:14;;;;;;;19.27;14.98;;;;;;;14.67;60.55;97911.44;6121057;23;20281;-81
2022/04/15 05:56:40;;;;;;;19.15;13.73;;;;;;;14.76;60.52;97920.41;6086075;23;20255;-82
2022/04/15 05:59:05;;;;;;;17.75;12.77;;;;;;;14.82;61.11;97918.59;6147288;23;20276;-81
2022/04/15 06:01:31;;;;;;;16.35;13.48;;;;;;;14.90;60.56;97925.22;6097094;23;20242;-82
2022/04/15 06:03:57;;;;;;;18.52;15.23;;;;;;;14.95;60.25;97928.66;6121075;23;20653;-81
2022/04/15 06:06:22;;;;;;;19.27;15.02;;;;;;;15.00;60.69;97934.97;6062609;23;20240;-82
2022/04/15 06:08:47;;;;;;;19.55;14.93;;;;;;;15.09;60.51;97928.19;6121570;23;20254;-82
2022/04/15 06:11:13;;;;;;;19.90;14.68;;;;;;;15.14;60.38;97931.63;6087106;23;20077;-82
2022/04/15 06:13:42;;;;;;;20.20;15.45;;;;;;;15.16;59.61;97920.88;6062142;23;20121;-82
2022/04/15 06:16:09;;;;;;;20.40;13.85;;;;;;;15.31;59.62;97933.28;6122306;23;20246;-82
2022/04/15 06:18:36;;;;;;;18.58;14.43;;;;;;;15.38;59.68;97941.72;6097865;23;20167;-82
2022/04/15 06:21:03;;;;;;;19.70;14.60;;;;;;;15.49;59.02;97934.66;6122459;23;20543;-82
2022/04/15 06:23:28;;;;;;;18.08;14.48;;;;;;;15.57;59.03;97941.25;6121577;23;20228;-82
2022/04/15 06:25:54;;;;;;;22.00;16.85;;;;;;;15.60;59.00;97935.50;6062761;23;20175;-83
2022/04/15 06:28:22;;;;;;;22.42;15.95;;;;;;;15.68;58.51;97940.25;6096927;23;20168;-82
2022/04/15 06:30:51;;;;;;;22.73;16.95;;;;;;;15.69;58.25;97955.72;6063279;23;20594;-83
2022/04/15 06:33:20;;;;;;;18.95;15.32;;;;;;;15.89;57.83;97951.63;6062098;23;20195;-82
2022/04/15 06:35:46;;;;;;;20.52;16.02;;;;;;;15.97;57.63;97945.06;6121908;23;20167;-82
2022/04/15 06:38:11;;;;;;;21.05;16.60;;;;;;;15.94;57.41;97956.06;6096887;23;20171;-82
2022/04/15 06:40:38;;;;;;;21.30;14.57;;;;;;;16.08;57.29;97960.59;6096860;23;20573;-82
2022/04/15 06:43:05;;;;;;;21.95;16.38;;;;;;;16.17;57.53;97962.69;6096398;23;20226;-82
2022/04/15 06:45:30;;;;;;;20.88;15.98;;;;;;;16.26;56.98;97961.94;6062691;23;20191;-82
2022/04/15 06:47:55;;;;;;;21.25;16.25;;;;;;;16.40;55.89;97962.19;6111709;23;20710;-82
2022/04/15 06:50:21;;;;;;;21.63;15.57;;;;;;;16.51;56.24;97976.13;6097150;23;20164;-82
2022/04/15 06:52:46;;;;;;;22.05;16.20;;;;;;;16.44;56.14;97975.59;6123633;23;20224;-83
2022/04/15 06:55:12;;;;;;;20.35;16.30;;;;;;;16.34;55.94;97972.97;6062324;23;20518;-84
2022/04/15 06:57:37;;;;;;;21.23;16.77;;;;;;;16.34;56.46;97980.84;6061947;23;20261;-83
2022/04/15 07:00:05;;;;;;;22.48;16.38;;;;;;;16.46;56.03;97976.13;6119967;23;20261;-83
2022/04/15 07:02:30;;;;;;;20.45;15.65;;;;;;;16.63;55.78;97987.16;6062691;23;20250;-83
2022/04/15 07:04:56;;;;;;;23.02;16.02;;;;;;;16.69;55.16;97980.09;6121304;23;20481;-85
2022/04/15 07:07:21;;;;;;;18.20;14.65;;;;;;;16.71;55.55;97992.94;6061996;23;20176;-84
2022/04/15 07:09:49;;;;;;;20.63;16.05;;;;;;;16.85;55.02;97975.63;6062514;23;20261;-85
2022/04/15 07:12:16;;;;;;;19.38;14.77;;;;;;;17.10;54.52;97984.50;6121200;23;20134;-85
2022/04/15 07:14:41;;;;;;;22.83;17.08;;;;;;;16.81;54.45;97985.03;6120680;23;20136;-84
2022/04/15 07:17:06;;;;;;;18.80;15.07;;;;;;;17.22;53.75;97982.38;6087432;23;20305;-85
2022/04/15 07:19:32;;;;;;;23.92;17.23;;;;;;;17.28;53.64;97991.84;6121253;23;20189;-83
2022/04/15 07:21:57;;;;;;;21.02;16.05;;;;;;;17.13;54.02;97984.00;6096946;23;20075;-84
2022/04/15 07:24:23;;;;;;;19.63;15.23;;;;;;;16.99;54.21;97986.38;6096981;23;20184;-82
2022/04/15 07:26:48;;;;;;;20.27;16.25;;;;;;;16.86;54.40;97990.34;6096247;23;20120;-83
2022/04/15 07:29:14;;;;;;;23.48;17.10;;;;;;;17.19;54.37;97988.19;6087307;23;20603;-84
2022/04/15 07:31:42;;;;;;;23.52;17.27;;;;;;;17.44;53.63;97983.91;6121641;23;20235;-83
2022/04/15 07:34:07;;;;;;;22.85;17.17;;;;;;;17.31;53.24;97988.69;6061727;23;20176;-83
2022/04/15 07:39:06;;;;;;;20.50;16.63;;;;;;;17.77;52.61;97988.50;6087663;23;20666;-84
2022/04/15 07:41:36;;;;;;;20.65;14.77;;;;;;;18.02;52.25;97989.44;6096211;23;20210;-84
2022/04/15 07:44:09;;;;;;;22.70;16.55;;;;;;;18.32;50.43;97996.38;6061644;23;20653;-84
2022/04/15 07:46:35;;;;;;;21.55;15.52;;;;;;;18.59;50.03;97994.34;6061243;23;20525;-83
2022/04/15 07:49:01;;;;;;;21.10;15.27;;;;;;;18.66;49.96;97989.53;6086514;23;20175;-83
2022/04/15 07:51:26;;;;;;;22.38;16.65;;;;;;;18.49;50.01;97998.66;6097261;23;20187;-83
2022/04/15 07:53:52;;;;;;;20.73;16.17;;;;;;;18.65;50.84;97995.88;6086185;23;20195;-83
2022/04/15 07:56:17;;;;;;;22.33;17.33;;;;;;;18.43;50.07;97997.09;6114482;23;20685;-82
2022/04/15 07:58:42;;;;;;;20.17;16.27;;;;;;;18.70;49.25;97994.00;6096102;23;20175;-81
2022/04/15 08:01:10;;;;;;;18.33;14.93;;;;;;;18.98;49.33;97999.56;6117027;23;20191;-83
2022/04/15 08:03:36;;;;;;;21.30;16.65;;;;;;;18.73;49.70;98000.56;6054602;23;20803;-83
2022/04/15 08:06:02;;;;;;;17.52;14.32;;;;;;;19.06;49.44;98003.47;6094392;23;20224;-83
2022/04/15 08:08:27;;;;;;;19.10;15.20;;;;;;;18.95;49.11;98001.97;6057881;23;20568;-83
2022/04/15 08:10:53;;;;;;;18.05;15.30;;;;;;;19.25;49.68;98001.69;6058951;23;20645;-82
2022/04/15 08:13:19;;;;;;;19.90;15.05;;;;;;;19.55;48.19;97997.13;6059757;23;20236;-82
2022/04/15 08:15:45;;;;;;;18.83;14.98;;;;;;;19.46;48.51;98002.22;6093015;23;20463;-82
2022/04/15 08:18:11;;;;;;;16.90;14.63;;;;;;;19.77;48.21;97995.84;6057159;23;20243;-82
2022/04/15 08:20:36;;;;;;;18.98;15.85;;;;;;;19.79;47.12;97998.97;6111434;23;20255;-82
2022/04/15 08:23:03;;;;;;;20.05;15.75;;;;;;;19.59;47.98;98005.28;6094568;23;20175;-82
2022/04/15 08:25:30;;;;;;;20.17;15.73;;;;;;;19.75;46.83;98005.91;6123492;23;20555;-82
2022/04/15 08:27:56;;;;;;;20.20;16.88;;;;;;;19.91;46.97;97999.38;6090636;23;20032;-83
2022/04/15 08:30:22;;;;;;;17.52;14.85;;;;;;;19.91;47.18;98004.66;6065779;23;20184;-83
2022/04/15 08:32:52;;;;;;;19.27;15.05;;;;;;;20.01;46.05;98004.53;6089829;23;20299;-83
2022/04/15 08:35:18;;;;;;;17.50;15.40;;;;;;;20.08;46.40;98011.28;6066223;23;20271;-82
2022/04/15 08:37:44;;;;;;;20.05;15.57;;;;;;;20.05;46.42;98012.66;6099191;23;20284;-82
2022/04/15 08:40:12;;;;;;;19.15;15.93;;;;;;;19.96;45.70;98006.41;6102512;23;20004;-83
2022/04/15 08:42:43;;;;;;;20.95;16.50;;;;;;;19.78;46.01;98015.91;6099538;23;20220;-83
2022/04/15 08:45:10;;;;;;;20.48;16.52;;;;;;;19.61;47.27;98021.63;6063800;23;20200;-84
2022/04/15 08:47:39;;;;;;;19.60;15.55;;;;;;;19.37;47.30;98014.50;6100092;23;20046;-81
2022/04/15 08:50:06;;;;;;;17.80;14.30;;;;;;;19.72;47.22;98017.00;6090172;23;20102;-82
2022/04/15 08:52:32;;;;;;;19.45;16.42;;;;;;;19.63;46.75;98022.91;6102215;23;20239;-83
2022/04/15 08:54:59;;;;;;;18.70;16.02;;;;;;;19.59;46.41;98021.91;6098444;23;20164;-82
2022/04/15 08:57:25;;;;;;;21.45;16.98;;;;;;;19.16;47.22;98024.50;6097972;23;20224;-82
2022/04/15 08:59:53;;;;;;;22.13;17.30;;;;;;;19.36;47.38;98025.34;6089090;23;20258;-83
2022/04/15 09:02:31;;;;;;;17.33;15.00;;;;;;;19.71;46.29;98036.59;6100998;23;20582;-81
2022/04/15 09:04:57;;;;;;;19.85;15.93;;;;;;;19.67;46.56;98030.28;6100707;23;20275;-83
2022/04/15 09:07:22;;;;;;;18.55;14.70;;;;;;;19.88;46.75;98036.13;6100904;23;20157;-82
2022/04/15 09:09:55;;;;;;;16.10;13.68;;;;;;;20.39;44.48;98036.25;6064499;23;20111;-82
2022/04/15 09:12:26;;;;;;;21.10;16.15;;;;;;;20.40;44.48;98035.16;6100503;23;20172;-83
2022/04/15 09:14:54;;;;;;;16.90;14.05;;;;;;;20.77;43.72;98036.22;6126377;23;20161;-81
2022/04/15 09:17:23;;;;;;;17.23;14.70;;;;;;;20.85;43.40;98036.63;6127436;23;20598;-82
2022/04/15 09:19:52;;;;;;;20.98;14.85;;;;;;;20.82;43.82;98039.84;6126838;23;20182;-83
2022/04/15 09:22:18;;;;;;;18.65;14.68;;;;;;;20.33;44.49;98036.59;6093053;23;20638;-82
2022/04/15 09:24:44;;;;;;;17.48;13.68;;;;;;;20.33;44.46;98026.03;6101499;23;20141;-82
2022/04/15 09:27:10;;;;;;;20.25;15.18;;;;;;;20.56;43.64;98038.38;6065834;23;20195;-83
2022/04/15 09:29:38;;;;;;;17.48;14.57;;;;;;;20.17;44.13;98044.75;6152431;23;20124;-82
2022/04/15 09:32:17;;;;;;;16.67;13.80;;;;;;;19.80;44.56;98040.19;6126780;23;20592;-81
2022/04/15 09:34:56;;;;;;;16.92;13.93;;;;;;;19.89;45.20;98035.84;6066837;23;20563;-83
2022/04/15 09:37:25;;;;;;;16.65;14.27;;;;;;;20.26;44.24;98031.66;6066908;23;20337;-82
2022/04/15 09:40:12;;;;;;;15.82;12.80;;;;;;;20.45;43.60;98033.53;6100975;23;20229;-82
2022/04/15 09:42:48;;;;;;;14.05;12.65;;;;;;;20.53;43.03;98040.81;6100414;23;20282;-82
2022/04/15 09:45:17;;;;;;;14.07;12.18;;;;;;;20.34;43.74;98038.16;6097449;23;20261;-83
2022/04/15 09:48:04;;;;;;;13.30;11.00;;;;;;;20.33;43.17;98042.66;6124330;23;20081;-82
2022/04/15 09:50:36;;;;;;;13.73;11.15;;;;;;;20.45;42.12;98038.81;6110617;23;20274;-83
2022/04/15 09:53:09;;;;;;;13.10;11.65;;;;;;;20.40;42.87;98039.66;6064307;23;20527;-82
2022/04/15 09:55:36;;;;;;;13.55;10.75;;;;;;;20.88;41.78;98041.34;6086751;23;20161;-82
2022/04/15 09:58:11;;;;;;;11.55;10.07;;;;;;;20.78;41.29;98042.28;6112731;23;20675;-81
2022/04/15 10:00:37;;;;;;;12.88;10.10;;;;;;;21.11;41.66;98040.41;6118098;23;20175;-83
2022/04/15 10:03:08;;;;;;;13.43;10.80;;;;;;;20.33;41.49;98037.38;6121279;23;20375;-81
2022/04/15 10:05:36;;;;;;;12.50;9.73;;;;;;;20.66;41.13;98039.31;6097753;23;20225;-83
2022/04/15 10:08:02;;;;;;;12.30;10.60;;;;;;;20.19;41.72;98032.03;6099100;23;20590;-82
2022/04/15 10:10:29;;;;;;;13.63;11.18;;;;;;;20.59;41.75;98034.34;6061138;23;20188;-83
2022/04/15 10:12:55;;;;;;;11.15;9.30;;;;;;;21.05;40.23;98032.84;6121737;23;20686;-83
2022/04/15 10:15:21;;;;;;;11.00;8.80;;;;;;;21.30;40.04;98026.28;6120805;23;20175;-82
2022/04/15 10:17:46;;;;;;;10.75;8.48;;;;;;;21.79;39.06;98032.03;6148415;23;20230;-83
2022/04/15 10:20:12;;;;;;;9.95;8.18;;;;;;;21.44;40.19;98026.31;6062796;23;20246;-82
2022/04/15 10:22:39;;;;;;;9.90;8.13;;;;;;;21.48;40.41;98030.75;6126548;23;20180;-82
2022/04/15 10:25:06;;;;;;;11.32;9.63;;;;;;;21.72;38.75;98032.41;6122649;23;20234;-81
2022/04/15 10:27:32;;;;;;;10.05;8.70;;;;;;;21.72;39.65;98032.41;6111814;23;20562;-83
2022/04/15 10:30:19;;;;;;;9.20;8.30;;;;;;;21.33;39.18;98020.41;6121043;23;20234;-82
2022/04/15 10:32:48;;;;;;;9.85;7.78;;;;;;;21.36;38.88;98029.66;6120894;23;20145;-83
2022/04/15 10:35:22;;;;;;;9.90;8.43;;;;;;;21.44;39.33;98031.63;6086261;23;20197;-81
2022/04/15 10:38:11;;;;;;;11.05;9.80;;;;;;;21.55;38.24;98027.72;6120564;23;20101;-81
2022/04/15 10:40:42;;;;;;;11.02;9.38;;;;;;;21.75;38.40;98015.94;6070181;23;20278;-83
2022/04/15 10:43:29;;;;;;;11.73;9.07;;;;;;;21.88;38.02;98020.44;6085461;23;20699;-82
2022/04/15 10:46:24;;;;;;;9.50;8.45;;;;;;;22.28;37.66;98011.91;6121608;23;20326;-82
2022/04/15 10:48:50;;;;;;;9.75;8.05;;;;;;;22.84;35.42;98014.31;6057359;23;20317;-81
2022/04/15 10:51:24;;;;;;;9.18;7.93;;;;;;;22.60;35.99;98012.75;6106704;23;20662;-82
2022/04/15 10:53:50;;;;;;;11.18;9.18;;;;;;;21.98;36.20;98021.28;6096655;23;20230;-82
2022/04/15 10:56:15;;;;;;;8.95;8.05;;;;;;;21.24;39.12;98022.19;6088868;23;20143;-82
2022/04/15 11:01:31;;;;;;;9.13;7.05;;;;;;;21.54;38.84;98012.91;6147566;23;20166;-82
2022/04/15 11:04:05;;;;;;;7.97;6.47;;;;;;;21.88;37.05;98023.09;6119921;23;20183;-82
2022/04/15 11:06:30;;;;;;;6.85;5.20;;;;;;;22.45;36.42;98011.25;6086423;23;20203;-82
2022/04/15 11:08:56;;;;;;;5.53;4.90;;;;;;;22.85;33.32;98011.34;6096121;23;20216;-82
2022/04/15 11:11:35;;;;;;;6.53;4.25;;;;;;;23.07;31.49;98015.09;6086239;23;20641;-81
2022/04/15 11:14:04;;;;;;;4.03;3.08;;;;;;;22.99;33.08;98011.25;6120440;23;20195;-83
2022/04/15 11:16:46;;;;;;;5.75;3.90;;;;;;;23.00;32.53;98013.63;6086100;23;20218;-82
2022/04/15 11:19:11;;;;;;;5.68;4.45;;;;;;;23.59;33.61;98004.63;6120113;23;20144;-82
2022/04/15 11:21:39;;;;;;;4.63;4.20;;;;;;;23.87;32.29;98004.41;6120492;23;20167;-82
2022/04/15 11:24:06;;;;;;;7.18;5.28;;;;;;;23.38;34.08;97997.22;6096388;23;20291;-82
2022/04/15 11:26:33;;;;;;;6.88;4.95;;;;;;;23.54;34.13;97994.13;6119360;23;20246;-82